Darstellungsparameter: Aktuell verwendete Einstellungen:
Skalierung der Graphiken ... ?
xyx+y,   Skalierungsfaktor:      Skalierung: Modus: x, Faktor: 1
Darstellungszeitraum ... ?
Vom - - bis: - -   Zeitraum: 13.08.2020 - 15.08.2020
Min/Max/Avg-Anzeige ... ?
Zeige MMA aktuell
Zeige MMA Monat
Zeige MMA alles
Zeige --A aktuell
Zeige --A Monat
Zeige --A alles
Keine MMA-Anzeige
MMA:
Average (ber die Originaldaten)
MMA-Basis: 13.08.2020 - 15.08.2020
Quicknavigation für Darstellung... ?
Tage:      1T, 2T, 3T, 5T -1T -2T -3T -5T +1T +2T +3T +5T
Wochen: 1W, 2W, 3W -1W -2W -3W +1W +2W +3W
Monate: 1M, 3M, 6M -1M -3M -6M +1M +3M +6M
Jahre:    1J, 3J, 5J, 10J -1J -3J -5J -10J +1J +3J +5J +10J
Nutze für die Darstellung ... ?
Originaldaten oder Mittelwerte auf ...
Stundenbasis Tagesbasis Wochenbasis
Monatsbasis Jahresbasis      Datenbasis: Original-Daten
Darstellen als:
Statistik (Auto) Statistik J:M      Darstellung:
Zur Graphik,    zurück zur Übersicht aller Sensoren.
 
Tabellarische Datenbersicht: ?
 
Sensor: Nr:Datum:Temp:Abs-Feuchte:Windchill:Wind:
Aussen-T/F 1 13-08-2020 00:00:00 19.9 C 16.32 g/m*3 19.9 C 0 km/h
2 13-08-2020 00:05:00 19.9 C 16.32 g/m*3 19.9 C 0 km/h
3 13-08-2020 00:10:00 19.9 C 16.15 g/m*3 19.9 C 0 km/h
4 13-08-2020 00:15:00 19.9 C 16.32 g/m*3 19.9 C 0 km/h
5 13-08-2020 00:20:00 19.9 C 16.32 g/m*3 19.9 C 4.8 km/h
6 13-08-2020 00:25:00 20 C 16.42 g/m*3 20 C 0 km/h
7 13-08-2020 00:30:00 20 C 16.42 g/m*3 20 C 1.6 km/h
8 13-08-2020 00:35:00 20 C 16.42 g/m*3 20 C 3.2 km/h
9 13-08-2020 00:40:00 19.9 C 16.32 g/m*3 19.9 C 0 km/h
10 13-08-2020 00:45:00 19.9 C 16.32 g/m*3 19.9 C 0 km/h
11 13-08-2020 00:50:00 19.9 C 16.15 g/m*3 19.9 C 0 km/h
12 13-08-2020 00:55:00 19.9 C 16.15 g/m*3 19.9 C 1.6 km/h
13 13-08-2020 01:00:00 19.9 C 16.32 g/m*3 19.9 C 0 km/h
14 13-08-2020 01:05:00 19.9 C 16.32 g/m*3 19.9 C 0 km/h
15 13-08-2020 01:10:00 19.8 C 16.06 g/m*3 19.8 C 0 km/h
16 13-08-2020 01:15:00 19.8 C 16.23 g/m*3 19.8 C 0 km/h
17 13-08-2020 01:20:00 19.8 C 16.06 g/m*3 19.8 C 0 km/h
18 13-08-2020 01:25:00 19.8 C 16.06 g/m*3 19.8 C 3.2 km/h
19 13-08-2020 01:30:00 19.7 C 15.96 g/m*3 19.7 C 1.6 km/h
20 13-08-2020 01:35:00 19.7 C 15.96 g/m*3 19.7 C 0 km/h
21 13-08-2020 01:40:00 19.7 C 16.13 g/m*3 19.7 C 0 km/h
22 13-08-2020 01:45:00 19.7 C 16.13 g/m*3 19.7 C 0 km/h
23 13-08-2020 01:50:00 19.7 C 15.96 g/m*3 19.7 C 0 km/h
24 13-08-2020 01:55:00 19.6 C 15.87 g/m*3 19.6 C 3.2 km/h
25 13-08-2020 02:00:00 19.6 C 15.87 g/m*3 19.6 C 1.6 km/h
Sensor: Nr:Datum:Temp:Abs-Feuchte:Windchill:Wind:
Aussen-T/F 26 13-08-2020 02:05:00 19.6 C 15.87 g/m*3 19.6 C 4.8 km/h
27 13-08-2020 02:10:00 19.6 C 15.87 g/m*3 19.6 C 4.8 km/h
28 13-08-2020 02:15:00 19.5 C 15.78 g/m*3 19.5 C 4.8 km/h
29 13-08-2020 02:20:00 19.4 C 15.68 g/m*3 19.4 C 0 km/h
30 13-08-2020 02:25:00 19.4 C 15.85 g/m*3 19.4 C 0 km/h
31 13-08-2020 02:30:00 19.4 C 15.68 g/m*3 19.4 C 0 km/h
32 13-08-2020 02:35:00 19.3 C 15.59 g/m*3 19.3 C 1.6 km/h
33 13-08-2020 02:40:00 19.2 C 15.5 g/m*3 19.2 C 3.2 km/h
34 13-08-2020 02:45:00 19.2 C 15.5 g/m*3 19.2 C 4.8 km/h
35 13-08-2020 02:50:00 19.2 C 15.5 g/m*3 19.2 C 4.8 km/h
36 13-08-2020 02:55:00 19.2 C 15.5 g/m*3 19.2 C 1.6 km/h
37 13-08-2020 03:00:00 19.2 C 15.66 g/m*3 19.2 C 0 km/h
38 13-08-2020 03:05:00 19.1 C 15.57 g/m*3 19.1 C 0 km/h
39 13-08-2020 03:10:00 19.1 C 15.57 g/m*3 19.1 C 0 km/h
40 13-08-2020 03:15:00 19.1 C 15.57 g/m*3 19.1 C 0 km/h
41 13-08-2020 03:20:00 19.1 C 15.57 g/m*3 19.1 C 3.2 km/h
42 13-08-2020 03:25:00 19.1 C 15.57 g/m*3 19.1 C 3.2 km/h
43 13-08-2020 03:30:00 19 C 15.48 g/m*3 19 C 0 km/h
44 13-08-2020 03:35:00 19 C 15.48 g/m*3 19 C 0 km/h
45 13-08-2020 03:40:00 18.9 C 15.39 g/m*3 18.9 C 0 km/h
46 13-08-2020 03:45:00 18.9 C 15.39 g/m*3 18.9 C 0 km/h
47 13-08-2020 03:50:00 18.9 C 15.39 g/m*3 18.9 C 0 km/h
48 13-08-2020 03:55:00 18.9 C 15.39 g/m*3 18.9 C 0 km/h
49 13-08-2020 04:00:00 18.9 C 15.39 g/m*3 18.9 C 0 km/h
50 13-08-2020 04:05:00 18.9 C 15.39 g/m*3 18.9 C 0 km/h
Sensor: Nr:Datum:Temp:Abs-Feuchte:Windchill:Wind:
Aussen-T/F 51 13-08-2020 04:10:00 18.9 C 15.39 g/m*3 18.9 C 0 km/h
52 13-08-2020 04:15:00 18.9 C 15.39 g/m*3 18.9 C 0 km/h
53 13-08-2020 04:20:00 18.9 C 15.39 g/m*3 18.9 C 0 km/h
54 13-08-2020 04:25:00 18.8 C 15.3 g/m*3 18.8 C 0 km/h
55 13-08-2020 04:30:00 18.9 C 15.39 g/m*3 18.9 C 0 km/h
56 13-08-2020 04:35:00 18.9 C 15.39 g/m*3 18.9 C 0 km/h
57 13-08-2020 04:40:00 19 C 15.64 g/m*3 19 C 3.2 km/h
58 13-08-2020 04:45:00 19.1 C 15.74 g/m*3 19.1 C 0 km/h
59 13-08-2020 04:50:00 19.3 C 15.92 g/m*3 19.3 C 1.6 km/h
60 13-08-2020 04:55:00 19.4 C 16.02 g/m*3 19.4 C 8.1 km/h
61 13-08-2020 05:00:00 19.6 C 16.21 g/m*3 19.6 C 4.8 km/h
62 13-08-2020 05:05:00 19.7 C 16.3 g/m*3 19.7 C 1.6 km/h
63 13-08-2020 05:10:00 19.7 C 16.3 g/m*3 19.7 C 3.2 km/h
64 13-08-2020 05:15:00 19.7 C 16.3 g/m*3 19.7 C 4.8 km/h
65 13-08-2020 05:20:00 19.7 C 16.3 g/m*3 19.7 C 4.8 km/h
66 13-08-2020 05:25:00 19.8 C 16.4 g/m*3 19.8 C 0 km/h
67 13-08-2020 05:30:00 19.8 C 16.4 g/m*3 19.8 C 4.8 km/h
68 13-08-2020 05:35:00 19.8 C 16.4 g/m*3 19.8 C 17.7 km/h
69 13-08-2020 05:40:00 19.8 C 16.4 g/m*3 19.8 C 9.7 km/h
70 13-08-2020 05:45:00 19.9 C 16.49 g/m*3 19.9 C 11.3 km/h
71 13-08-2020 05:50:00 19.9 C 16.49 g/m*3 19.9 C 8.1 km/h
72 13-08-2020 05:55:00 19.9 C 16.49 g/m*3 19.9 C 3.2 km/h
73 13-08-2020 06:00:00 19.9 C 16.49 g/m*3 19.9 C 1.6 km/h
74 13-08-2020 06:05:00 19.9 C 16.49 g/m*3 19.9 C 4.8 km/h
75 13-08-2020 06:10:00 19.9 C 16.49 g/m*3 19.9 C 4.8 km/h
Sensor: Nr:Datum:Temp:Abs-Feuchte:Windchill:Wind:
Aussen-T/F 76 13-08-2020 06:15:00 19.9 C 16.49 g/m*3 19.9 C 4.8 km/h
77 13-08-2020 06:20:00 19.9 C 16.49 g/m*3 19.9 C 1.6 km/h
78 13-08-2020 06:25:00 19.9 C 16.49 g/m*3 19.9 C 3.2 km/h
79 13-08-2020 06:30:00 19.8 C 16.4 g/m*3 19.8 C 6.4 km/h
80 13-08-2020 06:35:00 19.8 C 16.4 g/m*3 19.8 C 8.1 km/h
81 13-08-2020 06:40:00 19.8 C 16.4 g/m*3 19.8 C 3.2 km/h
82 13-08-2020 06:45:00 19.8 C 16.4 g/m*3 19.8 C 3.2 km/h
83 13-08-2020 06:50:00 19.7 C 16.3 g/m*3 19.7 C 3.2 km/h
84 13-08-2020 06:55:00 19.7 C 16.3 g/m*3 19.7 C 4.8 km/h
85 13-08-2020 07:00:00 19.7 C 16.3 g/m*3 19.7 C 1.6 km/h
86 13-08-2020 07:05:00 19.7 C 16.3 g/m*3 19.7 C 0 km/h
87 13-08-2020 07:10:00 19.7 C 16.3 g/m*3 19.7 C 0 km/h
88 13-08-2020 07:15:00 19.7 C 16.3 g/m*3 19.7 C 3.2 km/h
89 13-08-2020 07:20:00 19.6 C 16.21 g/m*3 19.6 C 3.2 km/h
90 13-08-2020 07:25:00 19.6 C 16.21 g/m*3 19.6 C 0 km/h
91 13-08-2020 07:30:00 19.6 C 16.21 g/m*3 19.6 C 1.6 km/h
92 13-08-2020 07:35:00 19.6 C 16.21 g/m*3 19.6 C 3.2 km/h
93 13-08-2020 07:40:00 19.6 C 16.21 g/m*3 19.6 C 3.2 km/h
94 13-08-2020 07:45:00 19.7 C 16.3 g/m*3 19.7 C 3.2 km/h
95 13-08-2020 07:50:00 19.7 C 16.47 g/m*3 19.7 C 1.6 km/h
96 13-08-2020 07:55:00 19.7 C 16.47 g/m*3 19.7 C 3.2 km/h
97 13-08-2020 08:00:00 19.8 C 16.57 g/m*3 19.8 C 0 km/h
98 13-08-2020 08:05:00 19.8 C 16.57 g/m*3 19.8 C 1.6 km/h
99 13-08-2020 08:10:00 19.8 C 16.57 g/m*3 19.8 C 0 km/h
100 13-08-2020 08:15:00 19.8 C 16.57 g/m*3 19.8 C 1.6 km/h
Sensor: Nr:Datum:Temp:Abs-Feuchte:Windchill:Wind:
Aussen-T/F 101 13-08-2020 08:20:00 19.8 C 16.57 g/m*3 19.8 C 0 km/h
102 13-08-2020 08:25:00 19.8 C 16.57 g/m*3 19.8 C 0 km/h
103 13-08-2020 08:30:00 19.8 C 16.57 g/m*3 19.8 C 1.6 km/h
104 13-08-2020 08:35:00 19.8 C 16.57 g/m*3 19.8 C 3.2 km/h
105 13-08-2020 08:40:00 19.8 C 16.57 g/m*3 19.8 C 3.2 km/h
106 13-08-2020 08:45:00 19.8 C 16.57 g/m*3 19.8 C 1.6 km/h
107 13-08-2020 08:50:00 19.8 C 16.57 g/m*3 19.8 C 0 km/h
108 13-08-2020 08:55:00 19.9 C 16.67 g/m*3 19.9 C 0 km/h
109 13-08-2020 09:00:00 19.9 C 16.67 g/m*3 19.9 C 0 km/h
110 13-08-2020 09:05:00 20 C 16.76 g/m*3 20 C 0 km/h
111 13-08-2020 09:10:00 20.1 C 16.86 g/m*3 20.1 C 0 km/h
112 13-08-2020 09:15:00 20.2 C 16.96 g/m*3 20.2 C 0 km/h
113 13-08-2020 09:20:00 20.4 C 17.16 g/m*3 20.4 C 0 km/h
114 13-08-2020 09:25:00 20.6 C 17.36 g/m*3 20.6 C 0 km/h
115 13-08-2020 09:30:00 20.6 C 17.36 g/m*3 20.6 C 0 km/h
116 13-08-2020 09:35:00 20.7 C 17.46 g/m*3 20.7 C 0 km/h
117 13-08-2020 09:40:00 20.8 C 17.56 g/m*3 20.8 C 0 km/h
118 13-08-2020 09:45:00 20.9 C 17.67 g/m*3 20.9 C 0 km/h
119 13-08-2020 09:50:00 21 C 17.77 g/m*3 21 C 0 km/h
120 13-08-2020 09:55:00 21.1 C 17.87 g/m*3 21.1 C 0 km/h
121 13-08-2020 10:00:00 21.2 C 17.98 g/m*3 21.2 C 0 km/h
122 13-08-2020 10:05:00 21.3 C 18.08 g/m*3 21.3 C 0 km/h
123 13-08-2020 10:10:00 21.3 C 18.08 g/m*3 21.3 C 4.8 km/h
124 13-08-2020 10:15:00 21.4 C 18.19 g/m*3 21.4 C 0 km/h
125 13-08-2020 10:20:00 21.5 C 18.29 g/m*3 21.5 C 0 km/h
Sensor: Nr:Datum:Temp:Abs-Feuchte:Windchill:Wind:
Aussen-T/F 126 13-08-2020 10:25:00 21.6 C 18.4 g/m*3 21.6 C 0 km/h
127 13-08-2020 10:30:00 21.7 C 18.5 g/m*3 21.7 C 0 km/h
128 13-08-2020 10:35:00 21.8 C 18.61 g/m*3 21.8 C 0 km/h
129 13-08-2020 10:40:00 21.8 C 18.61 g/m*3 21.8 C 0 km/h
130 13-08-2020 10:45:00 21.9 C 18.72 g/m*3 21.9 C 0 km/h
131 13-08-2020 10:50:00 22 C 18.83 g/m*3 22 C 0 km/h
132 13-08-2020 10:55:00 22.2 C 19.04 g/m*3 22.2 C 0 km/h
133 13-08-2020 11:00:00 22.4 C 19.26 g/m*3 22.4 C 0 km/h
134 13-08-2020 11:05:00 22.5 C 19.57 g/m*3 22.5 C 3.2 km/h
135 13-08-2020 11:10:00 22.6 C 19.49 g/m*3 22.6 C 4.8 km/h
136 13-08-2020 11:15:00 22.7 C 19.6 g/m*3 22.7 C 3.2 km/h
137 13-08-2020 11:20:00 22.8 C 19.71 g/m*3 22.8 C 0 km/h
138 13-08-2020 11:25:00 22.9 C 19.82 g/m*3 22.9 C 1.6 km/h
139 13-08-2020 11:30:00 23.2 C 20.17 g/m*3 23.2 C 3.2 km/h
140 13-08-2020 11:35:00 23.2 C 20.17 g/m*3 23.2 C 4.8 km/h
141 13-08-2020 11:40:00 23.1 C 19.84 g/m*3 23.1 C 1.6 km/h
142 13-08-2020 11:45:00 23.3 C 20.07 g/m*3 23.3 C 0 km/h
143 13-08-2020 11:50:00 23.7 C 20.53 g/m*3 23.7 C 0 km/h
144 13-08-2020 11:55:00 23.9 C 20.77 g/m*3 23.9 C 1.6 km/h
145 13-08-2020 12:00:00 23.8 C 20.22 g/m*3 23.8 C 3.2 km/h
146 13-08-2020 12:05:00 23.9 C 19.9 g/m*3 23.9 C 4.8 km/h
147 13-08-2020 12:10:00 24.1 C 19.91 g/m*3 24.1 C 1.6 km/h
148 13-08-2020 12:15:00 24.3 C 19.69 g/m*3 24.3 C 4.8 km/h
149 13-08-2020 12:20:00 24.7 C 20.6 g/m*3 24.7 C 0 km/h
150 13-08-2020 12:25:00 24.8 C 20.03 g/m*3 24.8 C 1.6 km/h
Sensor: Nr:Datum:Temp:Abs-Feuchte:Windchill:Wind:
Aussen-T/F 151 13-08-2020 12:30:00 25.2 C 19.09 g/m*3 25.2 C 4.8 km/h
152 13-08-2020 12:35:00 25.5 C 19.18 g/m*3 25.5 C 6.4 km/h
153 13-08-2020 12:40:00 25.8 C 18.54 g/m*3 25.8 C 9.7 km/h
154 13-08-2020 12:45:00 26.2 C 18.46 g/m*3 26.2 C 11.3 km/h
155 13-08-2020 12:50:00 26.5 C 18.52 g/m*3 26.5 C 11.3 km/h
156 13-08-2020 12:55:00 26.8 C 18.83 g/m*3 26.8 C 6.4 km/h
157 13-08-2020 13:00:00 26.9 C 18.68 g/m*3 26.9 C 9.7 km/h
158 13-08-2020 13:05:00 27.1 C 18.89 g/m*3 27.1 C 9.7 km/h
159 13-08-2020 13:10:00 27.2 C 18.48 g/m*3 27.2 C 9.7 km/h
160 13-08-2020 13:15:00 27.4 C 18.94 g/m*3 27.4 C 11.3 km/h
161 13-08-2020 13:20:00 27.6 C 18.89 g/m*3 27.6 C 4.8 km/h
162 13-08-2020 13:25:00 27.8 C 19.37 g/m*3 27.8 C 4.8 km/h
163 13-08-2020 13:30:00 28.1 C 19.41 g/m*3 28.1 C 9.7 km/h
164 13-08-2020 13:35:00 28.2 C 18.97 g/m*3 28.2 C 4.8 km/h
165 13-08-2020 13:40:00 28.3 C 19.35 g/m*3 28.3 C 8.1 km/h
166 13-08-2020 13:45:00 28.3 C 18.8 g/m*3 28.3 C 8.1 km/h
167 13-08-2020 13:50:00 28.5 C 19.29 g/m*3 28.5 C 6.4 km/h
168 13-08-2020 13:55:00 28.6 C 19.39 g/m*3 28.6 C 12.9 km/h
169 13-08-2020 14:00:00 28.8 C 18.75 g/m*3 28.8 C 12.9 km/h
170 13-08-2020 14:05:00 29.1 C 18.19 g/m*3 29.1 C 8.1 km/h
171 13-08-2020 14:10:00 29.3 C 18.69 g/m*3 29.3 C 6.4 km/h
172 13-08-2020 14:15:00 29.7 C 18.8 g/m*3 29.7 C 9.7 km/h
173 13-08-2020 14:20:00 29.9 C 17.8 g/m*3 29.9 C 9.7 km/h
174 13-08-2020 14:25:00 30.1 C 16.77 g/m*3 30.1 C 11.3 km/h
175 13-08-2020 14:30:00 30.2 C 16.55 g/m*3 30.2 C 19.3 km/h
Sensor: Nr:Datum:Temp:Abs-Feuchte:Windchill:Wind:
Aussen-T/F 176 13-08-2020 14:35:00 30.1 C 16.16 g/m*3 30.1 C 17.7 km/h
177 13-08-2020 14:40:00 29.9 C 15.68 g/m*3 29.9 C 17.7 km/h
178 13-08-2020 14:45:00 29.8 C 15.6 g/m*3 29.8 C 14.5 km/h
179 13-08-2020 14:50:00 29.9 C 15.38 g/m*3 29.9 C 14.5 km/h
180 13-08-2020 14:55:00 29.9 C 15.08 g/m*3 29.9 C 14.5 km/h
181 13-08-2020 15:00:00 29.9 C 15.68 g/m*3 29.9 C 17.7 km/h
182 13-08-2020 15:05:00 30 C 15.47 g/m*3 30 C 12.9 km/h
183 13-08-2020 15:10:00 30.1 C 15.55 g/m*3 30.1 C 16.1 km/h
184 13-08-2020 15:15:00 30 C 15.16 g/m*3 30 C 17.7 km/h
185 13-08-2020 15:20:00 29.8 C 15.3 g/m*3 29.8 C 14.5 km/h
186 13-08-2020 15:25:00 29.6 C 15.43 g/m*3 29.6 C 17.7 km/h
187 13-08-2020 15:30:00 29.3 C 15.47 g/m*3 29.3 C 16.1 km/h
188 13-08-2020 15:35:00 29.2 C 15.1 g/m*3 29.2 C 17.7 km/h
189 13-08-2020 15:40:00 29.1 C 15.31 g/m*3 29.1 C 17.7 km/h
190 13-08-2020 15:45:00 28.9 C 16 g/m*3 28.9 C 12.9 km/h
191 13-08-2020 15:50:00 28.8 C 15.63 g/m*3 28.8 C 14.5 km/h
192 13-08-2020 15:55:00 28.8 C 15.63 g/m*3 28.8 C 12.9 km/h
193 13-08-2020 16:00:00 28.7 C 16.11 g/m*3 28.7 C 4.8 km/h
194 13-08-2020 16:05:00 28.7 C 15.54 g/m*3 28.7 C 6.4 km/h
195 13-08-2020 16:10:00 28.7 C 15.26 g/m*3 28.7 C 12.9 km/h
196 13-08-2020 16:15:00 28.6 C 15.46 g/m*3 28.6 C 12.9 km/h
197 13-08-2020 16:20:00 28.4 C 15.84 g/m*3 28.4 C 12.9 km/h
198 13-08-2020 16:25:00 28.3 C 15.76 g/m*3 28.3 C 11.3 km/h
199 13-08-2020 16:30:00 28.3 C 15.48 g/m*3 28.3 C 16.1 km/h
200 13-08-2020 16:35:00 28.3 C 15.76 g/m*3 28.3 C 8.1 km/h
Sensor: Nr:Datum:Temp:Abs-Feuchte:Windchill:Wind:
Aussen-T/F 201 13-08-2020 16:40:00 28.3 C 15.76 g/m*3 28.3 C 9.7 km/h
202 13-08-2020 16:45:00 28.4 C 15.84 g/m*3 28.4 C 14.5 km/h
203 13-08-2020 16:50:00 28.3 C 15.76 g/m*3 28.3 C 12.9 km/h
204 13-08-2020 16:55:00 28.3 C 15.76 g/m*3 28.3 C 9.7 km/h
205 13-08-2020 17:00:00 28.2 C 16.22 g/m*3 28.2 C 4.8 km/h
206 13-08-2020 17:05:00 28.1 C 16.41 g/m*3 28.1 C 8.1 km/h
207 13-08-2020 17:10:00 28.1 C 16.41 g/m*3 28.1 C 6.4 km/h
208 13-08-2020 17:15:00 28.1 C 16.41 g/m*3 28.1 C 8.1 km/h
209 13-08-2020 17:20:00 28.1 C 16.95 g/m*3 28.1 C 4.8 km/h
210 13-08-2020 17:25:00 28.2 C 16.22 g/m*3 28.2 C 1.6 km/h
211 13-08-2020 17:30:00 28.4 C 16.96 g/m*3 28.4 C 4.8 km/h
212 13-08-2020 17:35:00 28.7 C 16.39 g/m*3 28.7 C 9.7 km/h
213 13-08-2020 17:40:00 28.7 C 16.39 g/m*3 28.7 C 6.4 km/h
214 13-08-2020 17:45:00 28.8 C 16.76 g/m*3 28.8 C 4.8 km/h
215 13-08-2020 17:50:00 28.9 C 16.57 g/m*3 28.9 C 4.8 km/h
216 13-08-2020 17:55:00 29.2 C 16.26 g/m*3 29.2 C 6.4 km/h
217 13-08-2020 18:00:00 29.4 C 16.15 g/m*3 29.4 C 8.1 km/h
218 13-08-2020 18:05:00 29.6 C 16.32 g/m*3 29.6 C 4.8 km/h
219 13-08-2020 18:10:00 29.6 C 16.91 g/m*3 29.6 C 4.8 km/h
220 13-08-2020 18:15:00 29.5 C 16.23 g/m*3 29.5 C 3.2 km/h
221 13-08-2020 18:20:00 29.2 C 15.68 g/m*3 29.2 C 3.2 km/h
222 13-08-2020 18:25:00 28.9 C 17.14 g/m*3 28.9 C 3.2 km/h
223 13-08-2020 18:30:00 28.7 C 16.95 g/m*3 28.7 C 3.2 km/h
224 13-08-2020 18:35:00 28.6 C 18.55 g/m*3 28.6 C 0 km/h
225 13-08-2020 18:40:00 28.4 C 18.62 g/m*3 28.4 C 0 km/h
Sensor: Nr:Datum:Temp:Abs-Feuchte:Windchill:Wind:
Aussen-T/F 226 13-08-2020 18:45:00 28.3 C 18.8 g/m*3 28.3 C 0 km/h
227 13-08-2020 18:50:00 28.1 C 18.87 g/m*3 28.1 C 0 km/h
228 13-08-2020 18:55:00 28 C 19.31 g/m*3 28 C 0 km/h
229 13-08-2020 19:00:00 27.9 C 18.93 g/m*3 27.9 C 0 km/h
230 13-08-2020 19:05:00 27.9 C 18.66 g/m*3 27.9 C 0 km/h
231 13-08-2020 19:10:00 27.9 C 17.58 g/m*3 27.9 C 0 km/h
232 13-08-2020 19:15:00 27.9 C 18.66 g/m*3 27.9 C 0 km/h
233 13-08-2020 19:20:00 27.9 C 18.93 g/m*3 27.9 C 0 km/h
234 13-08-2020 19:25:00 27.8 C 18.83 g/m*3 27.8 C 0 km/h
235 13-08-2020 19:30:00 27.7 C 18.99 g/m*3 27.7 C 0 km/h
236 13-08-2020 19:35:00 27.6 C 18.89 g/m*3 27.6 C 0 km/h
237 13-08-2020 19:40:00 27.5 C 18.78 g/m*3 27.5 C 0 km/h
238 13-08-2020 19:45:00 27.3 C 18.58 g/m*3 27.3 C 0 km/h
239 13-08-2020 19:50:00 27.1 C 18.63 g/m*3 27.1 C 3.2 km/h
240 13-08-2020 19:55:00 26.8 C 18.58 g/m*3 26.8 C 4.8 km/h
241 13-08-2020 20:00:00 26.6 C 18.38 g/m*3 26.6 C 1.6 km/h
242 13-08-2020 20:05:00 26.3 C 18.32 g/m*3 26.3 C 3.2 km/h
243 13-08-2020 20:10:00 26.2 C 18.22 g/m*3 26.2 C 1.6 km/h
244 13-08-2020 20:15:00 25.9 C 18.16 g/m*3 25.9 C 1.6 km/h
245 13-08-2020 20:20:00 25.7 C 18.2 g/m*3 25.7 C 0 km/h
246 13-08-2020 20:25:00 25.5 C 17.99 g/m*3 25.5 C 1.6 km/h
247 13-08-2020 20:30:00 25.2 C 17.93 g/m*3 25.2 C 1.6 km/h
248 13-08-2020 20:35:00 24.9 C 17.85 g/m*3 24.9 C 3.2 km/h
249 13-08-2020 20:40:00 24.6 C 17.78 g/m*3 24.6 C 4.8 km/h
250 13-08-2020 20:45:00 24.3 C 17.7 g/m*3 24.3 C 3.2 km/h
Sensor: Nr:Datum:Temp:Abs-Feuchte:Windchill:Wind:
Aussen-T/F 251 13-08-2020 20:50:00 24.1 C 17.72 g/m*3 24.1 C 4.8 km/h
252 13-08-2020 20:55:00 23.8 C 17.42 g/m*3 23.8 C 6.4 km/h
253 13-08-2020 21:00:00 23.6 C 17.23 g/m*3 23.6 C 4.8 km/h
254 13-08-2020 21:05:00 23.4 C 17.24 g/m*3 23.4 C 4.8 km/h
255 13-08-2020 21:10:00 23.2 C 17.05 g/m*3 23.2 C 6.4 km/h
256 13-08-2020 21:15:00 23 C 16.85 g/m*3 23 C 9.7 km/h
257 13-08-2020 21:20:00 22.8 C 16.87 g/m*3 22.8 C 8.1 km/h
258 13-08-2020 21:25:00 22.7 C 16.77 g/m*3 22.7 C 6.4 km/h
259 13-08-2020 21:30:00 22.7 C 16.97 g/m*3 22.7 C 8.1 km/h
260 13-08-2020 21:35:00 22.6 C 16.87 g/m*3 22.6 C 8.1 km/h
261 13-08-2020 21:40:00 22.6 C 16.87 g/m*3 22.6 C 6.4 km/h
262 13-08-2020 21:45:00 22.6 C 16.87 g/m*3 22.6 C 4.8 km/h
263 13-08-2020 21:50:00 22.6 C 16.87 g/m*3 22.6 C 4.8 km/h
264 13-08-2020 21:55:00 22.6 C 16.87 g/m*3 22.6 C 4.8 km/h
265 13-08-2020 22:00:00 22.6 C 16.87 g/m*3 22.6 C 0 km/h
266 13-08-2020 22:05:00 22.7 C 17.17 g/m*3 22.7 C 1.6 km/h
267 13-08-2020 22:10:00 22.7 C 17.17 g/m*3 22.7 C 3.2 km/h
268 13-08-2020 22:15:00 22.7 C 16.97 g/m*3 22.7 C 1.6 km/h
269 13-08-2020 22:20:00 22.6 C 16.87 g/m*3 22.6 C 4.8 km/h
270 13-08-2020 22:25:00 22.6 C 16.87 g/m*3 22.6 C 4.8 km/h
271 13-08-2020 22:30:00 22.6 C 16.87 g/m*3 22.6 C 6.4 km/h
272 13-08-2020 22:35:00 22.5 C 16.78 g/m*3 22.5 C 8.1 km/h
273 13-08-2020 22:40:00 22.5 C 16.78 g/m*3 22.5 C 4.8 km/h
274 13-08-2020 22:45:00 22.5 C 16.58 g/m*3 22.5 C 8.1 km/h
275 13-08-2020 22:50:00 22.6 C 16.67 g/m*3 22.6 C 4.8 km/h
Sensor: Nr:Datum:Temp:Abs-Feuchte:Windchill:Wind:
Aussen-T/F 276 13-08-2020 22:55:00 22.6 C 16.67 g/m*3 22.6 C 3.2 km/h
277 13-08-2020 23:00:00 22.6 C 16.47 g/m*3 22.6 C 3.2 km/h
278 13-08-2020 23:05:00 22.6 C 16.67 g/m*3 22.6 C 0 km/h
279 13-08-2020 23:10:00 22.7 C 16.77 g/m*3 22.7 C 0 km/h
280 13-08-2020 23:15:00 22.7 C 16.77 g/m*3 22.7 C 0 km/h
281 13-08-2020 23:20:00 22.6 C 16.67 g/m*3 22.6 C 0 km/h
282 13-08-2020 23:25:00 22.6 C 16.67 g/m*3 22.6 C 0 km/h
283 13-08-2020 23:30:00 22.6 C 16.67 g/m*3 22.6 C 0 km/h
284 13-08-2020 23:35:00 22.7 C 16.97 g/m*3 22.7 C 0 km/h
285 13-08-2020 23:40:00 22.6 C 16.87 g/m*3 22.6 C 0 km/h
286 13-08-2020 23:45:00 22.6 C 16.87 g/m*3 22.6 C 0 km/h
287 13-08-2020 23:50:00 22.6 C 16.87 g/m*3 22.6 C 0 km/h
288 13-08-2020 23:55:00 22.5 C 16.78 g/m*3 22.5 C 0 km/h
289 14-08-2020 00:00:00 22.4 C 16.68 g/m*3 22.4 C 0 km/h
290 14-08-2020 00:05:00 22.4 C 16.68 g/m*3 22.4 C 4.8 km/h
291 14-08-2020 00:10:00 22.3 C 16.59 g/m*3 22.3 C 4.8 km/h
292 14-08-2020 00:15:00 22.3 C 16.59 g/m*3 22.3 C 1.6 km/h
293 14-08-2020 00:20:00 22.2 C 16.49 g/m*3 22.2 C 1.6 km/h
294 14-08-2020 00:25:00 22.2 C 16.69 g/m*3 22.2 C 1.6 km/h
295 14-08-2020 00:30:00 22.2 C 16.69 g/m*3 22.2 C 0 km/h
296 14-08-2020 00:35:00 22.1 C 16.59 g/m*3 22.1 C 0 km/h
297 14-08-2020 00:40:00 22 C 16.5 g/m*3 22 C 0 km/h
298 14-08-2020 00:45:00 21.9 C 16.4 g/m*3 21.9 C 0 km/h
299 14-08-2020 00:50:00 21.9 C 16.4 g/m*3 21.9 C 0 km/h
300 14-08-2020 00:55:00 21.9 C 16.6 g/m*3 21.9 C 0 km/h
Sensor: Nr:Datum:Temp:Abs-Feuchte:Windchill:Wind:
Aussen-T/F 301 14-08-2020 01:00:00 21.9 C 16.4 g/m*3 21.9 C 1.6 km/h
302 14-08-2020 01:05:00 21.8 C 16.31 g/m*3 21.8 C 1.6 km/h
303 14-08-2020 01:10:00 21.8 C 16.31 g/m*3 21.8 C 3.2 km/h
304 14-08-2020 01:15:00 21.8 C 16.5 g/m*3 21.8 C 3.2 km/h
305 14-08-2020 01:20:00 21.7 C 16.41 g/m*3 21.7 C 3.2 km/h
306 14-08-2020 01:25:00 21.7 C 16.41 g/m*3 21.7 C 1.6 km/h
307 14-08-2020 01:30:00 21.7 C 16.41 g/m*3 21.7 C 0 km/h
308 14-08-2020 01:35:00 21.7 C 16.6 g/m*3 21.7 C 0 km/h
309 14-08-2020 01:40:00 21.6 C 16.5 g/m*3 21.6 C 1.6 km/h
310 14-08-2020 01:45:00 21.6 C 16.5 g/m*3 21.6 C 0 km/h
311 14-08-2020 01:50:00 21.6 C 16.5 g/m*3 21.6 C 1.6 km/h
312 14-08-2020 01:55:00 21.5 C 16.41 g/m*3 21.5 C 4.8 km/h
313 14-08-2020 02:00:00 21.4 C 16.12 g/m*3 21.4 C 4.8 km/h
314 14-08-2020 02:05:00 21.3 C 16.03 g/m*3 21.3 C 1.6 km/h
315 14-08-2020 02:10:00 21.3 C 16.03 g/m*3 21.3 C 1.6 km/h
316 14-08-2020 02:15:00 21.3 C 16.22 g/m*3 21.3 C 4.8 km/h
317 14-08-2020 02:20:00 21.2 C 16.12 g/m*3 21.2 C 0 km/h
318 14-08-2020 02:25:00 21.2 C 16.12 g/m*3 21.2 C 0 km/h
319 14-08-2020 02:30:00 21.1 C 16.03 g/m*3 21.1 C 0 km/h
320 14-08-2020 02:35:00 21.1 C 16.03 g/m*3 21.1 C 0 km/h
321 14-08-2020 02:40:00 20.9 C 16.03 g/m*3 20.9 C 0 km/h
322 14-08-2020 02:45:00 20.9 C 16.03 g/m*3 20.9 C 1.6 km/h
323 14-08-2020 02:50:00 20.7 C 15.66 g/m*3 20.7 C 0 km/h
324 14-08-2020 02:55:00 20.7 C 15.84 g/m*3 20.7 C 0 km/h
325 14-08-2020 03:00:00 20.6 C 15.75 g/m*3 20.6 C 0 km/h
Sensor: Nr:Datum:Temp:Abs-Feuchte:Windchill:Wind:
Aussen-T/F 326 14-08-2020 03:05:00 20.4 C 15.57 g/m*3 20.4 C 0 km/h
327 14-08-2020 03:10:00 20.3 C 15.48 g/m*3 20.3 C 0 km/h
328 14-08-2020 03:15:00 20.2 C 15.56 g/m*3 20.2 C 0 km/h
329 14-08-2020 03:20:00 20.1 C 15.47 g/m*3 20.1 C 0 km/h
330 14-08-2020 03:25:00 20 C 15.38 g/m*3 20 C 0 km/h
331 14-08-2020 03:30:00 19.9 C 15.29 g/m*3 19.9 C 0 km/h
332 14-08-2020 03:35:00 19.8 C 15.2 g/m*3 19.8 C 0 km/h
333 14-08-2020 03:40:00 19.8 C 15.37 g/m*3 19.8 C 0 km/h
334 14-08-2020 03:45:00 19.8 C 15.37 g/m*3 19.8 C 0 km/h
335 14-08-2020 03:50:00 19.8 C 15.37 g/m*3 19.8 C 0 km/h
336 14-08-2020 03:55:00 19.7 C 15.28 g/m*3 19.7 C 0 km/h
337 14-08-2020 04:00:00 19.6 C 15.19 g/m*3 19.6 C 0 km/h
338 14-08-2020 04:05:00 19.6 C 15.19 g/m*3 19.6 C 3.2 km/h
339 14-08-2020 04:10:00 19.5 C 15.1 g/m*3 19.5 C 1.6 km/h
340 14-08-2020 04:15:00 19.4 C 15.02 g/m*3 19.4 C 1.6 km/h
341 14-08-2020 04:20:00 19.3 C 14.93 g/m*3 19.3 C 1.6 km/h
342 14-08-2020 04:25:00 19.3 C 14.93 g/m*3 19.3 C 1.6 km/h
343 14-08-2020 04:30:00 19.2 C 14.84 g/m*3 19.2 C 0 km/h
344 14-08-2020 04:35:00 19.2 C 14.84 g/m*3 19.2 C 0 km/h
345 14-08-2020 04:40:00 19.1 C 14.92 g/m*3 19.1 C 0 km/h
346 14-08-2020 04:45:00 19.1 C 14.92 g/m*3 19.1 C 1.6 km/h
347 14-08-2020 04:50:00 19 C 14.83 g/m*3 19 C 0 km/h
348 14-08-2020 04:55:00 18.9 C 14.74 g/m*3 18.9 C 0 km/h
349 14-08-2020 05:00:00 18.9 C 14.74 g/m*3 18.9 C 0 km/h
350 14-08-2020 05:05:00 18.8 C 14.66 g/m*3 18.8 C 0 km/h
Sensor: Nr:Datum:Temp:Abs-Feuchte:Windchill:Wind:
Aussen-T/F 351 14-08-2020 05:10:00 18.8 C 14.82 g/m*3 18.8 C 0 km/h
352 14-08-2020 05:15:00 18.7 C 14.73 g/m*3 18.7 C 1.6 km/h
353 14-08-2020 05:20:00 18.8 C 14.82 g/m*3 18.8 C 0 km/h
354 14-08-2020 05:25:00 18.7 C 14.73 g/m*3 18.7 C 0 km/h
355 14-08-2020 05:30:00 18.7 C 14.73 g/m*3 18.7 C 1.6 km/h
356 14-08-2020 05:35:00 18.7 C 14.73 g/m*3 18.7 C 0 km/h
357 14-08-2020 05:40:00 18.7 C 14.73 g/m*3 18.7 C 1.6 km/h
358 14-08-2020 05:45:00 18.7 C 14.89 g/m*3 18.7 C 1.6 km/h
359 14-08-2020 05:50:00 18.7 C 14.89 g/m*3 18.7 C 0 km/h
360 14-08-2020 05:55:00 18.7 C 14.89 g/m*3 18.7 C 1.6 km/h
361 14-08-2020 06:00:00 18.7 C 14.89 g/m*3 18.7 C 1.6 km/h
362 14-08-2020 06:05:00 18.7 C 14.89 g/m*3 18.7 C 0 km/h
363 14-08-2020 06:10:00 18.8 C 14.98 g/m*3 18.8 C 0 km/h
364 14-08-2020 06:15:00 18.7 C 14.89 g/m*3 18.7 C 1.6 km/h
365 14-08-2020 06:20:00 18.8 C 14.98 g/m*3 18.8 C 1.6 km/h
366 14-08-2020 06:25:00 18.8 C 14.98 g/m*3 18.8 C 0 km/h
367 14-08-2020 06:30:00 18.8 C 14.98 g/m*3 18.8 C 0 km/h
368 14-08-2020 06:35:00 18.8 C 14.98 g/m*3 18.8 C 0 km/h
369 14-08-2020 06:40:00 18.8 C 14.98 g/m*3 18.8 C 1.6 km/h
370 14-08-2020 06:45:00 18.7 C 14.73 g/m*3 18.7 C 0 km/h
371 14-08-2020 06:50:00 18.7 C 14.73 g/m*3 18.7 C 0 km/h
372 14-08-2020 06:55:00 18.6 C 14.64 g/m*3 18.6 C 0 km/h
373 14-08-2020 07:00:00 18.6 C 14.64 g/m*3 18.6 C 0 km/h
374 14-08-2020 07:05:00 18.6 C 14.64 g/m*3 18.6 C 0 km/h
375 14-08-2020 07:10:00 18.7 C 14.73 g/m*3 18.7 C 0 km/h
Sensor: Nr:Datum:Temp:Abs-Feuchte:Windchill:Wind:
Aussen-T/F 376 14-08-2020 07:15:00 18.7 C 14.73 g/m*3 18.7 C 0 km/h
377 14-08-2020 07:20:00 18.8 C 14.98 g/m*3 18.8 C 3.2 km/h
378 14-08-2020 07:25:00 18.9 C 15.07 g/m*3 18.9 C 0 km/h
379 14-08-2020 07:30:00 19.1 C 15.08 g/m*3 19.1 C 0 km/h
380 14-08-2020 07:35:00 19.1 C 15.08 g/m*3 19.1 C 0 km/h
381 14-08-2020 07:40:00 19.2 C 15.17 g/m*3 19.2 C 0 km/h
382 14-08-2020 07:45:00 19.2 C 15.17 g/m*3 19.2 C 0 km/h
383 14-08-2020 07:50:00 19.2 C 15.17 g/m*3 19.2 C 0 km/h
384 14-08-2020 07:55:00 19.3 C 15.26 g/m*3 19.3 C 0 km/h
385 14-08-2020 08:00:00 19.3 C 15.26 g/m*3 19.3 C 0 km/h
386 14-08-2020 08:05:00 19.3 C 15.26 g/m*3 19.3 C 0 km/h
387 14-08-2020 08:10:00 19.4 C 15.35 g/m*3 19.4 C 0 km/h
388 14-08-2020 08:15:00 19.5 C 15.44 g/m*3 19.5 C 0 km/h
389 14-08-2020 08:20:00 19.7 C 15.62 g/m*3 19.7 C 0 km/h
390 14-08-2020 08:25:00 19.8 C 15.54 g/m*3 19.8 C 0 km/h
391 14-08-2020 08:30:00 20 C 15.73 g/m*3 20 C 0 km/h
392 14-08-2020 08:35:00 20.2 C 15.91 g/m*3 20.2 C 0 km/h
393 14-08-2020 08:40:00 20.4 C 15.92 g/m*3 20.4 C 0 km/h
394 14-08-2020 08:45:00 20.6 C 16.11 g/m*3 20.6 C 0 km/h
395 14-08-2020 08:50:00 20.6 C 15.93 g/m*3 20.6 C 0 km/h
396 14-08-2020 08:55:00 20.7 C 15.84 g/m*3 20.7 C 0 km/h
397 14-08-2020 09:00:00 20.8 C 15.75 g/m*3 20.8 C 1.6 km/h
398 14-08-2020 09:05:00 20.8 C 15.93 g/m*3 20.8 C 1.6 km/h
399 14-08-2020 09:10:00 20.9 C 16.03 g/m*3 20.9 C 1.6 km/h
400 14-08-2020 09:15:00 20.9 C 16.21 g/m*3 20.9 C 0 km/h
Sensor: Nr:Datum:Temp:Abs-Feuchte:Windchill:Wind:
Aussen-T/F 401 14-08-2020 09:20:00 20.9 C 16.21 g/m*3 20.9 C 0 km/h
402 14-08-2020 09:25:00 21.1 C 16.4 g/m*3 21.1 C 0 km/h
403 14-08-2020 09:30:00 21 C 16.12 g/m*3 21 C 3.2 km/h
404 14-08-2020 09:35:00 21 C 16.12 g/m*3 21 C 3.2 km/h
405 14-08-2020 09:40:00 21.1 C 15.85 g/m*3 21.1 C 6.4 km/h
406 14-08-2020 09:45:00 21.2 C 15.57 g/m*3 21.2 C 9.7 km/h
407 14-08-2020 09:50:00 21.4 C 15.56 g/m*3 21.4 C 9.7 km/h
408 14-08-2020 09:55:00 21.7 C 15.45 g/m*3 21.7 C 9.7 km/h
409 14-08-2020 10:00:00 22 C 15.72 g/m*3 22 C 6.4 km/h
410 14-08-2020 10:05:00 22.2 C 15.71 g/m*3 22.2 C 8.1 km/h
411 14-08-2020 10:10:00 22.5 C 15.58 g/m*3 22.5 C 9.7 km/h
412 14-08-2020 10:15:00 22.7 C 15.56 g/m*3 22.7 C 12.9 km/h
413 14-08-2020 10:20:00 22.8 C 15.65 g/m*3 22.8 C 11.3 km/h
414 14-08-2020 10:25:00 22.9 C 15.74 g/m*3 22.9 C 14.5 km/h
415 14-08-2020 10:30:00 23 C 15.83 g/m*3 23 C 12.9 km/h
416 14-08-2020 10:35:00 22.9 C 15.74 g/m*3 22.9 C 9.7 km/h
417 14-08-2020 10:40:00 22.8 C 15.85 g/m*3 22.8 C 9.7 km/h
418 14-08-2020 10:45:00 22.7 C 15.96 g/m*3 22.7 C 8.1 km/h
419 14-08-2020 10:50:00 22.5 C 15.58 g/m*3 22.5 C 11.3 km/h
420 14-08-2020 10:55:00 22.4 C 15.69 g/m*3 22.4 C 9.7 km/h
421 14-08-2020 11:00:00 22.3 C 15.8 g/m*3 22.3 C 4.8 km/h
422 14-08-2020 11:05:00 22.3 C 15.8 g/m*3 22.3 C 6.4 km/h
423 14-08-2020 11:10:00 22.3 C 15.8 g/m*3 22.3 C 4.8 km/h
424 14-08-2020 11:15:00 22.3 C 15.99 g/m*3 22.3 C 6.4 km/h
425 14-08-2020 11:20:00 22.3 C 15.8 g/m*3 22.3 C 11.3 km/h
Sensor: Nr:Datum:Temp:Abs-Feuchte:Windchill:Wind:
Aussen-T/F 426 14-08-2020 11:25:00 22.3 C 15.8 g/m*3 22.3 C 8.1 km/h
427 14-08-2020 11:30:00 22.3 C 15.6 g/m*3 22.3 C 12.9 km/h
428 14-08-2020 11:35:00 22.3 C 15.4 g/m*3 22.3 C 8.1 km/h
429 14-08-2020 11:40:00 22.3 C 15.6 g/m*3 22.3 C 8.1 km/h
430 14-08-2020 11:45:00 22.3 C 15.4 g/m*3 22.3 C 6.4 km/h
431 14-08-2020 11:50:00 22.3 C 15.4 g/m*3 22.3 C 9.7 km/h
432 14-08-2020 11:55:00 22.3 C 15.6 g/m*3 22.3 C 6.4 km/h
433 14-08-2020 12:00:00 22.3 C 15.6 g/m*3 22.3 C 4.8 km/h
434 14-08-2020 12:05:00 22.3 C 15.6 g/m*3 22.3 C 8.1 km/h
435 14-08-2020 12:10:00 22.3 C 15.6 g/m*3 22.3 C 6.4 km/h
436 14-08-2020 12:15:00 22.3 C 15.6 g/m*3 22.3 C 3.2 km/h
437 14-08-2020 12:20:00 22.3 C 15.6 g/m*3 22.3 C 4.8 km/h
438 14-08-2020 12:25:00 22.3 C 15.4 g/m*3 22.3 C 6.4 km/h
439 14-08-2020 12:30:00 22.3 C 15.6 g/m*3 22.3 C 6.4 km/h
440 14-08-2020 12:35:00 22.3 C 15.6 g/m*3 22.3 C 9.7 km/h
441 14-08-2020 12:40:00 22.3 C 15.8 g/m*3 22.3 C 8.1 km/h
442 14-08-2020 12:45:00 22.4 C 15.89 g/m*3 22.4 C 8.1 km/h
443 14-08-2020 12:50:00 22.4 C 15.69 g/m*3 22.4 C 9.7 km/h
444 14-08-2020 12:55:00 22.5 C 15.78 g/m*3 22.5 C 4.8 km/h
445 14-08-2020 13:00:00 22.6 C 15.87 g/m*3 22.6 C 8.1 km/h
446 14-08-2020 13:05:00 22.6 C 15.67 g/m*3 22.6 C 9.7 km/h
447 14-08-2020 13:10:00 22.8 C 16.05 g/m*3 22.8 C 8.1 km/h
448 14-08-2020 13:15:00 22.9 C 15.94 g/m*3 22.9 C 6.4 km/h
449 14-08-2020 13:20:00 23.1 C 15.92 g/m*3 23.1 C 11.3 km/h
450 14-08-2020 13:25:00 23.2 C 16.01 g/m*3 23.2 C 9.7 km/h
Sensor: Nr:Datum:Temp:Abs-Feuchte:Windchill:Wind:
Aussen-T/F 451 14-08-2020 13:30:00 23.3 C 16.1 g/m*3 23.3 C 9.7 km/h
452 14-08-2020 13:35:00 23.4 C 15.98 g/m*3 23.4 C 11.3 km/h
453 14-08-2020 13:40:00 23.6 C 16.38 g/m*3 23.6 C 6.4 km/h
454 14-08-2020 13:45:00 23.7 C 16.26 g/m*3 23.7 C 8.1 km/h
455 14-08-2020 13:50:00 23.8 C 16.13 g/m*3 23.8 C 8.1 km/h
456 14-08-2020 13:55:00 24.1 C 16.41 g/m*3 24.1 C 9.7 km/h
457 14-08-2020 14:00:00 24.3 C 16.15 g/m*3 24.3 C 12.9 km/h
458 14-08-2020 14:05:00 24.6 C 16.43 g/m*3 24.6 C 12.9 km/h
459 14-08-2020 14:10:00 24.8 C 16.39 g/m*3 24.8 C 12.9 km/h
460 14-08-2020 14:15:00 25.1 C 16.2 g/m*3 25.1 C 11.3 km/h
461 14-08-2020 14:20:00 25.3 C 16.39 g/m*3 25.3 C 19.3 km/h
462 14-08-2020 14:25:00 25.4 C 16.48 g/m*3 25.4 C 11.3 km/h
463 14-08-2020 14:30:00 25.4 C 16.72 g/m*3 25.4 C 14.5 km/h
464 14-08-2020 14:35:00 25.5 C 16.57 g/m*3 25.5 C 12.9 km/h
465 14-08-2020 14:40:00 25.5 C 16.34 g/m*3 25.5 C 12.9 km/h
466 14-08-2020 14:45:00 25.4 C 16.24 g/m*3 25.4 C 11.3 km/h
467 14-08-2020 14:50:00 25.6 C 16.43 g/m*3 25.6 C 12.9 km/h
468 14-08-2020 14:55:00 25.8 C 16.61 g/m*3 25.8 C 9.7 km/h
469 14-08-2020 15:00:00 26.1 C 16.89 g/m*3 26.1 C 12.9 km/h
470 14-08-2020 15:05:00 26.4 C 16.43 g/m*3 26.4 C 9.7 km/h
471 14-08-2020 15:10:00 26.5 C 16.27 g/m*3 26.5 C 14.5 km/h
472 14-08-2020 15:15:00 26.7 C 16.2 g/m*3 26.7 C 8.1 km/h
473 14-08-2020 15:20:00 26.7 C 15.95 g/m*3 26.7 C 9.7 km/h
474 14-08-2020 15:25:00 26.7 C 16.2 g/m*3 26.7 C 11.3 km/h
475 14-08-2020 15:30:00 27.1 C 16.3 g/m*3 27.1 C 11.3 km/h
Sensor: Nr:Datum:Temp:Abs-Feuchte:Windchill:Wind:
Aussen-T/F 476 14-08-2020 15:35:00 27.7 C 15.25 g/m*3 27.7 C 11.3 km/h
477 14-08-2020 15:40:00 28.1 C 15.59 g/m*3 28.1 C 9.7 km/h
478 14-08-2020 15:45:00 28.4 C 15.84 g/m*3 28.4 C 14.5 km/h
479 14-08-2020 15:50:00 28.8 C 15.34 g/m*3 28.8 C 11.3 km/h
480 14-08-2020 15:55:00 29.2 C 15.39 g/m*3 29.2 C 12.9 km/h
481 14-08-2020 16:00:00 29.5 C 15.35 g/m*3 29.5 C 17.7 km/h
482 14-08-2020 16:05:00 29.6 C 15.13 g/m*3 29.6 C 12.9 km/h
483 14-08-2020 16:10:00 29.6 C 14.84 g/m*3 29.6 C 19.3 km/h
484 14-08-2020 16:15:00 29.4 C 14.68 g/m*3 29.4 C 12.9 km/h
485 14-08-2020 16:20:00 29.2 C 15.1 g/m*3 29.2 C 14.5 km/h
486 14-08-2020 16:25:00 29.2 C 15.39 g/m*3 29.2 C 14.5 km/h
487 14-08-2020 16:30:00 29.3 C 14.89 g/m*3 29.3 C 19.3 km/h
488 14-08-2020 16:35:00 29.3 C 14.6 g/m*3 29.3 C 12.9 km/h
489 14-08-2020 16:40:00 28.9 C 15.14 g/m*3 28.9 C 16.1 km/h
490 14-08-2020 16:45:00 28.7 C 14.69 g/m*3 28.7 C 12.9 km/h
491 14-08-2020 16:50:00 28.6 C 15.18 g/m*3 28.6 C 8.1 km/h
492 14-08-2020 16:55:00 28.8 C 15.06 g/m*3 28.8 C 11.3 km/h
493 14-08-2020 17:00:00 29.1 C 14.73 g/m*3 29.1 C 12.9 km/h
494 14-08-2020 17:05:00 29.5 C 15.05 g/m*3 29.5 C 9.7 km/h
495 14-08-2020 17:10:00 29.7 C 14.92 g/m*3 29.7 C 11.3 km/h
496 14-08-2020 17:15:00 29.8 C 14.7 g/m*3 29.8 C 14.5 km/h
497 14-08-2020 17:20:00 30.1 C 15.24 g/m*3 30.1 C 8.1 km/h
498 14-08-2020 17:25:00 30.3 C 15.1 g/m*3 30.3 C 11.3 km/h
499 14-08-2020 17:30:00 30.2 C 15.63 g/m*3 30.2 C 8.1 km/h
500 14-08-2020 17:35:00 30.2 C 15.02 g/m*3 30.2 C 9.7 km/h
Sensor: Nr:Datum:Temp:Abs-Feuchte:Windchill:Wind:
Aussen-T/F 501 14-08-2020 17:40:00 30.2 C 15.33 g/m*3 30.2 C 8.1 km/h
502 14-08-2020 17:45:00 30.4 C 14.87 g/m*3 30.4 C 11.3 km/h
503 14-08-2020 17:50:00 30.6 C 15.03 g/m*3 30.6 C 6.4 km/h
504 14-08-2020 17:55:00 30.7 C 15.12 g/m*3 30.7 C 14.5 km/h
505 14-08-2020 18:00:00 30.6 C 14.72 g/m*3 30.6 C 14.5 km/h
506 14-08-2020 18:05:00 30.6 C 15.66 g/m*3 30.6 C 9.7 km/h
507 14-08-2020 18:10:00 30.7 C 15.12 g/m*3 30.7 C 12.9 km/h
508 14-08-2020 18:15:00 30.6 C 15.03 g/m*3 30.6 C 11.3 km/h
509 14-08-2020 18:20:00 30.4 C 14.87 g/m*3 30.4 C 11.3 km/h
510 14-08-2020 18:25:00 30.3 C 15.1 g/m*3 30.3 C 9.7 km/h
511 14-08-2020 18:30:00 30.3 C 15.41 g/m*3 30.3 C 9.7 km/h
512 14-08-2020 18:35:00 30.2 C 15.02 g/m*3 30.2 C 14.5 km/h
513 14-08-2020 18:40:00 30.2 C 15.33 g/m*3 30.2 C 11.3 km/h
514 14-08-2020 18:45:00 30.1 C 15.55 g/m*3 30.1 C 11.3 km/h
515 14-08-2020 18:50:00 30.1 C 15.55 g/m*3 30.1 C 12.9 km/h
516 14-08-2020 18:55:00 30.2 C 15.33 g/m*3 30.2 C 8.1 km/h
517 14-08-2020 19:00:00 30.2 C 15.33 g/m*3 30.2 C 8.1 km/h
518 14-08-2020 19:05:00 30.1 C 15.55 g/m*3 30.1 C 9.7 km/h
519 14-08-2020 19:10:00 30.1 C 16.16 g/m*3 30.1 C 3.2 km/h
520 14-08-2020 19:15:00 29.6 C 15.73 g/m*3 29.6 C 6.4 km/h
521 14-08-2020 19:20:00 29 C 15.8 g/m*3 29 C 8.1 km/h
522 14-08-2020 19:25:00 28.3 C 16.03 g/m*3 28.3 C 3.2 km/h
523 14-08-2020 19:30:00 27.9 C 16.23 g/m*3 27.9 C 6.4 km/h
524 14-08-2020 19:35:00 27.8 C 16.41 g/m*3 27.8 C 4.8 km/h
525 14-08-2020 19:40:00 27.8 C 15.87 g/m*3 27.8 C 3.2 km/h
Sensor: Nr:Datum:Temp:Abs-Feuchte:Windchill:Wind:
Aussen-T/F 526 14-08-2020 19:45:00 27.7 C 15.78 g/m*3 27.7 C 8.1 km/h
527 14-08-2020 19:50:00 27.6 C 15.96 g/m*3 27.6 C 3.2 km/h
528 14-08-2020 19:55:00 27.4 C 15.79 g/m*3 27.4 C 1.6 km/h
529 14-08-2020 20:00:00 27.2 C 15.87 g/m*3 27.2 C 3.2 km/h
530 14-08-2020 20:05:00 26.9 C 15.61 g/m*3 26.9 C 1.6 km/h
531 14-08-2020 20:10:00 26.7 C 15.69 g/m*3 26.7 C 0 km/h
532 14-08-2020 20:15:00 26.6 C 16.11 g/m*3 26.6 C 4.8 km/h
533 14-08-2020 20:20:00 26.4 C 16.18 g/m*3 26.4 C 4.8 km/h
534 14-08-2020 20:25:00 26.2 C 16 g/m*3 26.2 C 0 km/h
535 14-08-2020 20:30:00 26.1 C 16.16 g/m*3 26.1 C 0 km/h
536 14-08-2020 20:35:00 25.9 C 15.98 g/m*3 25.9 C 0 km/h
537 14-08-2020 20:40:00 25.7 C 15.8 g/m*3 25.7 C 0 km/h
538 14-08-2020 20:45:00 25.6 C 15.95 g/m*3 25.6 C 4.8 km/h
539 14-08-2020 20:50:00 25.3 C 15.92 g/m*3 25.3 C 3.2 km/h
540 14-08-2020 20:55:00 25.2 C 15.83 g/m*3 25.2 C 12.9 km/h
541 14-08-2020 21:00:00 25 C 16.57 g/m*3 25 C 4.8 km/h
542 14-08-2020 21:05:00 24.6 C 16.66 g/m*3 24.6 C 8.1 km/h
543 14-08-2020 21:10:00 24.1 C 16.63 g/m*3 24.1 C 4.8 km/h
544 14-08-2020 21:15:00 23.6 C 16.38 g/m*3 23.6 C 4.8 km/h
545 14-08-2020 21:20:00 23.1 C 16.12 g/m*3 23.1 C 3.2 km/h
546 14-08-2020 21:25:00 22.8 C 16.26 g/m*3 22.8 C 4.8 km/h
547 14-08-2020 21:30:00 22.6 C 16.07 g/m*3 22.6 C 4.8 km/h
548 14-08-2020 21:35:00 22.3 C 15.99 g/m*3 22.3 C 8.1 km/h
549 14-08-2020 21:40:00 22.2 C 15.71 g/m*3 22.2 C 6.4 km/h
550 14-08-2020 21:45:00 22.2 C 15.71 g/m*3 22.2 C 3.2 km/h
Sensor: Nr:Datum:Temp:Abs-Feuchte:Windchill:Wind:
Aussen-T/F 551 14-08-2020 21:50:00 22.1 C 15.62 g/m*3 22.1 C 1.6 km/h
552 14-08-2020 21:55:00 22.1 C 15.42 g/m*3 22.1 C 0 km/h
553 14-08-2020 22:00:00 22.2 C 15.71 g/m*3 22.2 C 0 km/h
554 14-08-2020 22:05:00 22.2 C 15.71 g/m*3 22.2 C 0 km/h
555 14-08-2020 22:10:00 22.2 C 15.9 g/m*3 22.2 C 0 km/h
556 14-08-2020 22:15:00 22.2 C 15.9 g/m*3 22.2 C 0 km/h
557 14-08-2020 22:20:00 22.2 C 15.9 g/m*3 22.2 C 0 km/h
558 14-08-2020 22:25:00 22.1 C 15.81 g/m*3 22.1 C 0 km/h
559 14-08-2020 22:30:00 22.1 C 16.01 g/m*3 22.1 C 0 km/h
560 14-08-2020 22:35:00 22 C 15.91 g/m*3 22 C 0 km/h
561 14-08-2020 22:40:00 21.9 C 15.82 g/m*3 21.9 C 0 km/h
562 14-08-2020 22:45:00 21.9 C 15.82 g/m*3 21.9 C 0 km/h
563 14-08-2020 22:50:00 21.8 C 15.73 g/m*3 21.8 C 0 km/h
564 14-08-2020 22:55:00 21.8 C 15.73 g/m*3 21.8 C 0 km/h
565 14-08-2020 23:00:00 21.8 C 15.73 g/m*3 21.8 C 0 km/h
566 14-08-2020 23:05:00 21.8 C 15.73 g/m*3 21.8 C 0 km/h
567 14-08-2020 23:10:00 21.7 C 15.64 g/m*3 21.7 C 0 km/h
568 14-08-2020 23:15:00 21.7 C 15.64 g/m*3 21.7 C 0 km/h
569 14-08-2020 23:20:00 21.7 C 15.83 g/m*3 21.7 C 0 km/h
570 14-08-2020 23:25:00 21.6 C 15.55 g/m*3 21.6 C 0 km/h
571 14-08-2020 23:30:00 21.6 C 15.74 g/m*3 21.6 C 0 km/h
572 14-08-2020 23:35:00 21.6 C 15.74 g/m*3 21.6 C 0 km/h
573 14-08-2020 23:40:00 21.5 C 15.65 g/m*3 21.5 C 0 km/h
574 14-08-2020 23:45:00 21.5 C 15.65 g/m*3 21.5 C 1.6 km/h
575 14-08-2020 23:50:00 21.5 C 15.84 g/m*3 21.5 C 4.8 km/h
Sensor: Nr:Datum:Temp:Abs-Feuchte:Windchill:Wind:
Aussen-T/F 576 14-08-2020 23:55:00 21.5 C 15.84 g/m*3 21.5 C 0 km/h
577 15-08-2020 00:00:00 21.6 C 15.93 g/m*3 21.6 C 1.6 km/h
578 15-08-2020 00:05:00 21.5 C 15.84 g/m*3 21.5 C 4.8 km/h
579 15-08-2020 00:10:00 21.4 C 15.75 g/m*3 21.4 C 4.8 km/h
580 15-08-2020 00:15:00 21.4 C 15.75 g/m*3 21.4 C 6.4 km/h
581 15-08-2020 00:20:00 21.3 C 15.66 g/m*3 21.3 C 0 km/h
582 15-08-2020 00:25:00 21.3 C 15.84 g/m*3 21.3 C 0 km/h
583 15-08-2020 00:30:00 21.3 C 15.84 g/m*3 21.3 C 0 km/h
584 15-08-2020 00:35:00 21.2 C 15.75 g/m*3 21.2 C 1.6 km/h
585 15-08-2020 00:40:00 21.2 C 15.75 g/m*3 21.2 C 1.6 km/h
586 15-08-2020 00:45:00 21.2 C 15.94 g/m*3 21.2 C 0 km/h
587 15-08-2020 00:50:00 21.2 C 15.94 g/m*3 21.2 C 0 km/h
588 15-08-2020 00:55:00 21.1 C 15.85 g/m*3 21.1 C 0 km/h
589 15-08-2020 01:00:00 21.1 C 15.85 g/m*3 21.1 C 0 km/h
590 15-08-2020 01:05:00 21.1 C 15.85 g/m*3 21.1 C 0 km/h
591 15-08-2020 01:10:00 21 C 15.75 g/m*3 21 C 3.2 km/h
592 15-08-2020 01:15:00 21 C 15.75 g/m*3 21 C 0 km/h
593 15-08-2020 01:20:00 21 C 15.94 g/m*3 21 C 0 km/h
594 15-08-2020 01:25:00 21 C 15.75 g/m*3 21 C 0 km/h
595 15-08-2020 01:30:00 20.9 C 15.84 g/m*3 20.9 C 0 km/h
596 15-08-2020 01:35:00 20.9 C 15.84 g/m*3 20.9 C 0 km/h
597 15-08-2020 01:40:00 20.8 C 15.75 g/m*3 20.8 C 0 km/h
598 15-08-2020 01:45:00 20.8 C 15.75 g/m*3 20.8 C 0 km/h
599 15-08-2020 01:50:00 20.7 C 15.66 g/m*3 20.7 C 0 km/h
600 15-08-2020 01:55:00 20.7 C 15.66 g/m*3 20.7 C 0 km/h
Sensor: Nr:Datum:Temp:Abs-Feuchte:Windchill:Wind:
Aussen-T/F 601 15-08-2020 02:00:00 20.6 C 15.57 g/m*3 20.6 C 1.6 km/h
602 15-08-2020 02:05:00 20.6 C 15.57 g/m*3 20.6 C 1.6 km/h
603 15-08-2020 02:10:00 20.4 C 15.39 g/m*3 20.4 C 1.6 km/h
604 15-08-2020 02:15:00 20.3 C 15.3 g/m*3 20.3 C 0 km/h
605 15-08-2020 02:20:00 20.3 C 15.3 g/m*3 20.3 C 1.6 km/h
606 15-08-2020 02:25:00 20.2 C 15.21 g/m*3 20.2 C 3.2 km/h
607 15-08-2020 02:30:00 20.1 C 15.3 g/m*3 20.1 C 1.6 km/h
608 15-08-2020 02:35:00 20 C 15.21 g/m*3 20 C 3.2 km/h
609 15-08-2020 02:40:00 19.9 C 15.12 g/m*3 19.9 C 1.6 km/h
610 15-08-2020 02:45:00 19.9 C 15.12 g/m*3 19.9 C 0 km/h
611 15-08-2020 02:50:00 19.8 C 15.2 g/m*3 19.8 C 0 km/h
612 15-08-2020 02:55:00 19.7 C 15.11 g/m*3 19.7 C 0 km/h
613 15-08-2020 03:00:00 19.7 C 15.11 g/m*3 19.7 C 0 km/h
614 15-08-2020 03:05:00 19.7 C 15.28 g/m*3 19.7 C 0 km/h
615 15-08-2020 03:10:00 19.6 C 15.19 g/m*3 19.6 C 0 km/h
616 15-08-2020 03:15:00 19.6 C 15.19 g/m*3 19.6 C 0 km/h
617 15-08-2020 03:20:00 19.4 C 15.02 g/m*3 19.4 C 0 km/h
618 15-08-2020 03:25:00 19.4 C 15.02 g/m*3 19.4 C 1.6 km/h
619 15-08-2020 03:30:00 19.3 C 14.93 g/m*3 19.3 C 0 km/h
620 15-08-2020 03:35:00 19.3 C 15.09 g/m*3 19.3 C 0 km/h
621 15-08-2020 03:40:00 19.3 C 15.09 g/m*3 19.3 C 0 km/h
622 15-08-2020 03:45:00 19.2 C 15.01 g/m*3 19.2 C 0 km/h
623 15-08-2020 03:50:00 19.2 C 15.01 g/m*3 19.2 C 0 km/h
624 15-08-2020 03:55:00 19.1 C 14.92 g/m*3 19.1 C 0 km/h
625 15-08-2020 04:00:00 19 C 14.83 g/m*3 19 C 0 km/h
Sensor: Nr:Datum:Temp:Abs-Feuchte:Windchill:Wind:
Aussen-T/F 626 15-08-2020 04:05:00 18.9 C 14.9 g/m*3 18.9 C 0 km/h
627 15-08-2020 04:10:00 18.9 C 14.9 g/m*3 18.9 C 0 km/h
628 15-08-2020 04:15:00 18.8 C 14.82 g/m*3 18.8 C 0 km/h
629 15-08-2020 04:20:00 18.8 C 14.82 g/m*3 18.8 C 0 km/h
630 15-08-2020 04:25:00 18.7 C 14.73 g/m*3 18.7 C 0 km/h
631 15-08-2020 04:30:00 18.7 C 14.73 g/m*3 18.7 C 0 km/h
632 15-08-2020 04:35:00 18.6 C 14.8 g/m*3 18.6 C 0 km/h
633 15-08-2020 04:40:00 18.6 C 14.8 g/m*3 18.6 C 0 km/h
634 15-08-2020 04:45:00 18.6 C 14.8 g/m*3 18.6 C 0 km/h
635 15-08-2020 04:50:00 18.5 C 14.71 g/m*3 18.5 C 0 km/h
636 15-08-2020 04:55:00 18.4 C 14.63 g/m*3 18.4 C 0 km/h
637 15-08-2020 05:00:00 18.3 C 14.54 g/m*3 18.3 C 0 km/h
638 15-08-2020 05:05:00 18.3 C 14.54 g/m*3 18.3 C 0 km/h
639 15-08-2020 05:10:00 18.3 C 14.54 g/m*3 18.3 C 0 km/h
640 15-08-2020 05:15:00 18.3 C 14.54 g/m*3 18.3 C 0 km/h
641 15-08-2020 05:20:00 18.3 C 14.7 g/m*3 18.3 C 0 km/h
642 15-08-2020 05:25:00 18.2 C 14.61 g/m*3 18.2 C 0 km/h
643 15-08-2020 05:30:00 18.3 C 14.7 g/m*3 18.3 C 0 km/h
644 15-08-2020 05:35:00 18.3 C 14.7 g/m*3 18.3 C 0 km/h
645 15-08-2020 05:40:00 18.3 C 14.7 g/m*3 18.3 C 0 km/h
646 15-08-2020 05:45:00 18.3 C 14.7 g/m*3 18.3 C 0 km/h
647 15-08-2020 05:50:00 18.4 C 14.78 g/m*3 18.4 C 0 km/h
648 15-08-2020 05:55:00 18.4 C 14.78 g/m*3 18.4 C 0 km/h
649 15-08-2020 06:00:00 18.4 C 14.78 g/m*3 18.4 C 0 km/h
650 15-08-2020 06:05:00 18.4 C 14.78 g/m*3 18.4 C 0 km/h
Sensor: Nr:Datum:Temp:Abs-Feuchte:Windchill:Wind:
Aussen-T/F 651 15-08-2020 06:10:00 18.4 C 14.78 g/m*3 18.4 C 0 km/h
652 15-08-2020 06:15:00 18.3 C 14.7 g/m*3 18.3 C 0 km/h
653 15-08-2020 06:20:00 18.3 C 14.7 g/m*3 18.3 C 0 km/h
654 15-08-2020 06:25:00 18.3 C 14.7 g/m*3 18.3 C 0 km/h
655 15-08-2020 06:30:00 18.3 C 14.7 g/m*3 18.3 C 0 km/h
656 15-08-2020 06:35:00 18.2 C 14.61 g/m*3 18.2 C 0 km/h
657 15-08-2020 06:40:00 18.2 C 14.61 g/m*3 18.2 C 0 km/h
658 15-08-2020 06:45:00 18.2 C 14.77 g/m*3 18.2 C 0 km/h
659 15-08-2020 06:50:00 18.2 C 14.77 g/m*3 18.2 C 0 km/h
660 15-08-2020 06:55:00 18.2 C 14.77 g/m*3 18.2 C 0 km/h
661 15-08-2020 07:00:00 18.2 C 14.61 g/m*3 18.2 C 0 km/h
662 15-08-2020 07:05:00 18.2 C 14.77 g/m*3 18.2 C 0 km/h
663 15-08-2020 07:10:00 18.3 C 14.85 g/m*3 18.3 C 0 km/h
664 15-08-2020 07:15:00 18.3 C 14.85 g/m*3 18.3 C 0 km/h
665 15-08-2020 07:20:00 18.4 C 14.94 g/m*3 18.4 C 0 km/h
666 15-08-2020 07:25:00 18.5 C 15.03 g/m*3 18.5 C 0 km/h
667 15-08-2020 07:30:00 18.6 C 15.12 g/m*3 18.6 C 0 km/h
668 15-08-2020 07:35:00 18.7 C 15.21 g/m*3 18.7 C 0 km/h
669 15-08-2020 07:40:00 18.8 C 15.3 g/m*3 18.8 C 0 km/h
670 15-08-2020 07:45:00 18.9 C 15.39 g/m*3 18.9 C 0 km/h
671 15-08-2020 07:50:00 18.9 C 15.39 g/m*3 18.9 C 0 km/h
672 15-08-2020 07:55:00 19 C 15.48 g/m*3 19 C 0 km/h
673 15-08-2020 08:00:00 19.1 C 15.57 g/m*3 19.1 C 0 km/h
674 15-08-2020 08:05:00 19.1 C 15.57 g/m*3 19.1 C 0 km/h
675 15-08-2020 08:10:00 19.2 C 15.66 g/m*3 19.2 C 0 km/h
Sensor: Nr:Datum:Temp:Abs-Feuchte:Windchill:Wind:
Aussen-T/F 676 15-08-2020 08:15:00 19.3 C 15.76 g/m*3 19.3 C 0 km/h
677 15-08-2020 08:20:00 19.3 C 15.59 g/m*3 19.3 C 0 km/h
678 15-08-2020 08:25:00 19.4 C 15.68 g/m*3 19.4 C 0 km/h
679 15-08-2020 08:30:00 19.5 C 15.78 g/m*3 19.5 C 0 km/h
680 15-08-2020 08:35:00 19.6 C 15.87 g/m*3 19.6 C 0 km/h
681 15-08-2020 08:40:00 19.7 C 15.96 g/m*3 19.7 C 0 km/h
682 15-08-2020 08:45:00 19.8 C 15.89 g/m*3 19.8 C 0 km/h
683 15-08-2020 08:50:00 19.9 C 15.98 g/m*3 19.9 C 0 km/h
684 15-08-2020 08:55:00 20.1 C 16.17 g/m*3 20.1 C 0 km/h
685 15-08-2020 09:00:00 20.1 C 16.17 g/m*3 20.1 C 0 km/h
686 15-08-2020 09:05:00 20.2 C 16.09 g/m*3 20.2 C 0 km/h
687 15-08-2020 09:10:00 20.2 C 15.91 g/m*3 20.2 C 0 km/h
688 15-08-2020 09:15:00 20.3 C 16 g/m*3 20.3 C 0 km/h
689 15-08-2020 09:20:00 20.4 C 16.1 g/m*3 20.4 C 0 km/h
690 15-08-2020 09:25:00 20.6 C 16.11 g/m*3 20.6 C 0 km/h
691 15-08-2020 09:30:00 20.7 C 16.2 g/m*3 20.7 C 0 km/h
692 15-08-2020 09:35:00 20.8 C 16.12 g/m*3 20.8 C 0 km/h
693 15-08-2020 09:40:00 20.9 C 16.39 g/m*3 20.9 C 1.6 km/h
694 15-08-2020 09:45:00 21.1 C 16.4 g/m*3 21.1 C 1.6 km/h
695 15-08-2020 09:50:00 21.2 C 16.49 g/m*3 21.2 C 1.6 km/h
696 15-08-2020 09:55:00 21.4 C 16.5 g/m*3 21.4 C 1.6 km/h
697 15-08-2020 10:00:00 21.5 C 16.59 g/m*3 21.5 C 3.2 km/h
698 15-08-2020 10:05:00 21.6 C 16.69 g/m*3 21.6 C 0 km/h
699 15-08-2020 10:10:00 21.7 C 16.6 g/m*3 21.7 C 3.2 km/h
700 15-08-2020 10:15:00 21.9 C 16.79 g/m*3 21.9 C 4.8 km/h
Sensor: Nr:Datum:Temp:Abs-Feuchte:Windchill:Wind:
Aussen-T/F 701 15-08-2020 10:20:00 22 C 16.69 g/m*3 22 C 6.4 km/h
702 15-08-2020 10:25:00 22.2 C 16.88 g/m*3 22.2 C 1.6 km/h
703 15-08-2020 10:30:00 22.3 C 16.78 g/m*3 22.3 C 6.4 km/h
704 15-08-2020 10:35:00 22.4 C 16.68 g/m*3 22.4 C 3.2 km/h
705 15-08-2020 10:40:00 22.6 C 16.67 g/m*3 22.6 C 6.4 km/h
706 15-08-2020 10:45:00 22.7 C 16.77 g/m*3 22.7 C 0 km/h
707 15-08-2020 10:50:00 22.9 C 16.96 g/m*3 22.9 C 4.8 km/h
708 15-08-2020 10:55:00 23.1 C 16.74 g/m*3 23.1 C 4.8 km/h
709 15-08-2020 11:00:00 23.2 C 17.05 g/m*3 23.2 C 3.2 km/h
710 15-08-2020 11:05:00 23.4 C 17.24 g/m*3 23.4 C 8.1 km/h
711 15-08-2020 11:10:00 23.5 C 16.92 g/m*3 23.5 C 8.1 km/h
712 15-08-2020 11:15:00 23.6 C 17.01 g/m*3 23.6 C 1.6 km/h
713 15-08-2020 11:20:00 23.7 C 17.11 g/m*3 23.7 C 0 km/h
714 15-08-2020 11:25:00 23.8 C 16.99 g/m*3 23.8 C 1.6 km/h
715 15-08-2020 11:30:00 23.9 C 16.87 g/m*3 23.9 C 3.2 km/h
716 15-08-2020 11:35:00 24.2 C 17.38 g/m*3 24.2 C 3.2 km/h
717 15-08-2020 11:40:00 24.3 C 17.26 g/m*3 24.3 C 4.8 km/h
718 15-08-2020 11:45:00 24.3 C 17.04 g/m*3 24.3 C 4.8 km/h
719 15-08-2020 11:50:00 24.6 C 17.33 g/m*3 24.6 C 4.8 km/h
720 15-08-2020 11:55:00 24.8 C 17.07 g/m*3 24.8 C 6.4 km/h
721 15-08-2020 12:00:00 24.9 C 17.4 g/m*3 24.9 C 6.4 km/h
722 15-08-2020 12:05:00 24.9 C 17.17 g/m*3 24.9 C 6.4 km/h
723 15-08-2020 12:10:00 24.9 C 17.17 g/m*3 24.9 C 4.8 km/h
724 15-08-2020 12:15:00 24.9 C 16.94 g/m*3 24.9 C 6.4 km/h
725 15-08-2020 12:20:00 24.9 C 16.94 g/m*3 24.9 C 8.1 km/h
Sensor: Nr:Datum:Temp:Abs-Feuchte:Windchill:Wind:
Aussen-T/F 726 15-08-2020 12:25:00 24.9 C 16.94 g/m*3 24.9 C 9.7 km/h
727 15-08-2020 12:30:00 24.9 C 16.94 g/m*3 24.9 C 9.7 km/h
728 15-08-2020 12:35:00 25.1 C 17.13 g/m*3 25.1 C 6.4 km/h
729 15-08-2020 12:40:00 25.2 C 16.99 g/m*3 25.2 C 8.1 km/h
730 15-08-2020 12:45:00 25.3 C 16.86 g/m*3 25.3 C 4.8 km/h
731 15-08-2020 12:50:00 25.3 C 16.62 g/m*3 25.3 C 6.4 km/h
732 15-08-2020 12:55:00 25.3 C 16.62 g/m*3 25.3 C 0 km/h
733 15-08-2020 13:00:00 25.4 C 16.95 g/m*3 25.4 C 6.4 km/h
734 15-08-2020 13:05:00 25.5 C 16.81 g/m*3 25.5 C 8.1 km/h
735 15-08-2020 13:10:00 25.7 C 16.76 g/m*3 25.7 C 0 km/h
736 15-08-2020 13:15:00 25.7 C 16.52 g/m*3 25.7 C 0 km/h
737 15-08-2020 13:20:00 25.8 C 16.61 g/m*3 25.8 C 6.4 km/h
738 15-08-2020 13:25:00 25.8 C 16.61 g/m*3 25.8 C 9.7 km/h
739 15-08-2020 13:30:00 25.8 C 16.61 g/m*3 25.8 C 8.1 km/h
740 15-08-2020 13:35:00 25.9 C 16.46 g/m*3 25.9 C 8.1 km/h
741 15-08-2020 13:40:00 26.1 C 16.65 g/m*3 26.1 C 8.1 km/h
742 15-08-2020 13:45:00 26 C 16.31 g/m*3 26 C 9.7 km/h
743 15-08-2020 13:50:00 26.1 C 16.89 g/m*3 26.1 C 3.2 km/h
744 15-08-2020 13:55:00 26.1 C 16.4 g/m*3 26.1 C 3.2 km/h
745 15-08-2020 14:00:00 26.2 C 16.25 g/m*3 26.2 C 3.2 km/h
746 15-08-2020 14:05:00 26.3 C 16.59 g/m*3 26.3 C 0 km/h
747 15-08-2020 14:10:00 26.4 C 16.43 g/m*3 26.4 C 0 km/h
748 15-08-2020 14:15:00 26.6 C 16.61 g/m*3 26.6 C 0 km/h
749 15-08-2020 14:20:00 26.7 C 16.71 g/m*3 26.7 C 0 km/h
750 15-08-2020 14:25:00 26.9 C 16.64 g/m*3 26.9 C 12.9 km/h
Sensor: Nr:Datum:Temp:Abs-Feuchte:Windchill:Wind:
Aussen-T/F 751 15-08-2020 14:30:00 26.8 C 16.54 g/m*3 26.8 C 12.9 km/h
752 15-08-2020 14:35:00 26.3 C 15.84 g/m*3 26.3 C 24.1 km/h
753 15-08-2020 14:40:00 25.5 C 15.63 g/m*3 25.5 C 14.5 km/h
754 15-08-2020 14:45:00 25.1 C 15.28 g/m*3 25.1 C 14.5 km/h
755 15-08-2020 14:50:00 24.8 C 15.02 g/m*3 24.8 C 11.3 km/h
756 15-08-2020 14:55:00 24.6 C 15.08 g/m*3 24.6 C 9.7 km/h
757 15-08-2020 15:00:00 24.6 C 15.3 g/m*3 24.6 C 6.4 km/h
758 15-08-2020 15:05:00 24.6 C 15.08 g/m*3 24.6 C 4.8 km/h
759 15-08-2020 15:10:00 24.6 C 15.08 g/m*3 24.6 C 8.1 km/h
760 15-08-2020 15:15:00 24.5 C 15.22 g/m*3 24.5 C 3.2 km/h
761 15-08-2020 15:20:00 24.5 C 14.99 g/m*3 24.5 C 1.6 km/h
762 15-08-2020 15:25:00 24.5 C 14.99 g/m*3 24.5 C 3.2 km/h
763 15-08-2020 15:30:00 24.5 C 15.22 g/m*3 24.5 C 4.8 km/h
764 15-08-2020 15:35:00 24.4 C 15.36 g/m*3 24.4 C 3.2 km/h
765 15-08-2020 15:40:00 24.4 C 15.8 g/m*3 24.4 C 0 km/h
766 15-08-2020 15:45:00 24.4 C 16.02 g/m*3 24.4 C 0 km/h
767 15-08-2020 15:50:00 24.2 C 16.06 g/m*3 24.2 C 0 km/h
768 15-08-2020 15:55:00 24.1 C 16.63 g/m*3 24.1 C 0 km/h
769 15-08-2020 16:00:00 23.8 C 16.78 g/m*3 23.8 C 4.8 km/h
770 15-08-2020 16:05:00 23.6 C 17.01 g/m*3 23.6 C 4.8 km/h
771 15-08-2020 16:10:00 23.4 C 16.82 g/m*3 23.4 C 1.6 km/h
772 15-08-2020 16:15:00 23.3 C 16.94 g/m*3 23.3 C 8.1 km/h
773 15-08-2020 16:20:00 23.1 C 16.95 g/m*3 23.1 C 4.8 km/h
774 15-08-2020 16:25:00 22.8 C 17.07 g/m*3 22.8 C 8.1 km/h
775 15-08-2020 16:30:00 22.7 C 16.97 g/m*3 22.7 C 4.8 km/h
Sensor: Nr:Datum:Temp:Abs-Feuchte:Windchill:Wind:
Aussen-T/F 776 15-08-2020 16:35:00 22.6 C 16.87 g/m*3 22.6 C 6.4 km/h
777 15-08-2020 16:40:00 22.6 C 17.08 g/m*3 22.6 C 3.2 km/h
778 15-08-2020 16:45:00 22.7 C 16.97 g/m*3 22.7 C 3.2 km/h
779 15-08-2020 16:50:00 22.8 C 17.07 g/m*3 22.8 C 3.2 km/h
780 15-08-2020 16:55:00 22.9 C 17.17 g/m*3 22.9 C 3.2 km/h
781 15-08-2020 17:00:00 23.1 C 17.36 g/m*3 23.1 C 4.8 km/h
782 15-08-2020 17:05:00 23.2 C 17.46 g/m*3 23.2 C 4.8 km/h
783 15-08-2020 17:10:00 23.2 C 17.67 g/m*3 23.2 C 11.3 km/h
784 15-08-2020 17:15:00 23.2 C 17.26 g/m*3 23.2 C 4.8 km/h
785 15-08-2020 17:20:00 23.2 C 17.46 g/m*3 23.2 C 4.8 km/h
786 15-08-2020 17:25:00 23.3 C 17.56 g/m*3 23.3 C 4.8 km/h
787 15-08-2020 17:30:00 23.4 C 17.45 g/m*3 23.4 C 0 km/h
788 15-08-2020 17:35:00 23.6 C 17.44 g/m*3 23.6 C 3.2 km/h
789 15-08-2020 17:40:00 23.9 C 17.31 g/m*3 23.9 C 4.8 km/h
790 15-08-2020 17:45:00 24.1 C 17.29 g/m*3 24.1 C 4.8 km/h
791 15-08-2020 17:50:00 24.2 C 17.38 g/m*3 24.2 C 0 km/h
792 15-08-2020 17:55:00 24.2 C 17.38 g/m*3 24.2 C 0 km/h
793 15-08-2020 18:00:00 24.2 C 17.38 g/m*3 24.2 C 0 km/h
794 15-08-2020 18:05:00 24.2 C 17.38 g/m*3 24.2 C 0 km/h
795 15-08-2020 18:10:00 24.1 C 17.29 g/m*3 24.1 C 0 km/h
796 15-08-2020 18:15:00 24.1 C 17.29 g/m*3 24.1 C 0 km/h
797 15-08-2020 18:20:00 24.1 C 17.5 g/m*3 24.1 C 0 km/h
798 15-08-2020 18:25:00 24.1 C 17.72 g/m*3 24.1 C 0 km/h
799 15-08-2020 18:30:00 24 C 17.41 g/m*3 24 C 0 km/h
800 15-08-2020 18:35:00 23.9 C 17.52 g/m*3 23.9 C 0 km/h
Sensor: Nr:Datum:Temp:Abs-Feuchte:Windchill:Wind:
Aussen-T/F 801 15-08-2020 18:40:00 23.8 C 17.42 g/m*3 23.8 C 0 km/h
802 15-08-2020 18:45:00 23.8 C 17.64 g/m*3 23.8 C 0 km/h
803 15-08-2020 18:50:00 23.8 C 17.64 g/m*3 23.8 C 0 km/h
804 15-08-2020 18:55:00 23.7 C 17.54 g/m*3 23.7 C 0 km/h
805 15-08-2020 19:00:00 23.7 C 17.54 g/m*3 23.7 C 0 km/h
806 15-08-2020 19:05:00 23.6 C 17.65 g/m*3 23.6 C 0 km/h
807 15-08-2020 19:10:00 23.5 C 17.55 g/m*3 23.5 C 0 km/h
808 15-08-2020 19:15:00 23.4 C 17.45 g/m*3 23.4 C 0 km/h
809 15-08-2020 19:20:00 23.4 C 17.66 g/m*3 23.4 C 0 km/h
810 15-08-2020 19:25:00 23.3 C 17.56 g/m*3 23.3 C 0 km/h
811 15-08-2020 19:30:00 23.3 C 17.77 g/m*3 23.3 C 0 km/h
812 15-08-2020 19:35:00 23.3 C 17.77 g/m*3 23.3 C 0 km/h
813 15-08-2020 19:40:00 23.3 C 17.77 g/m*3 23.3 C 0 km/h
814 15-08-2020 19:45:00 23.3 C 17.77 g/m*3 23.3 C 0 km/h
815 15-08-2020 19:50:00 23.3 C 17.77 g/m*3 23.3 C 0 km/h
816 15-08-2020 19:55:00 23.4 C 18.08 g/m*3 23.4 C 3.2 km/h
817 15-08-2020 20:00:00 23.4 C 18.08 g/m*3 23.4 C 1.6 km/h
818 15-08-2020 20:05:00 23.3 C 18.19 g/m*3 23.3 C 0 km/h
819 15-08-2020 20:10:00 23.4 C 18.08 g/m*3 23.4 C 0 km/h
820 15-08-2020 20:15:00 23.4 C 18.08 g/m*3 23.4 C 0 km/h
821 15-08-2020 20:20:00 23.3 C 17.98 g/m*3 23.3 C 0 km/h
822 15-08-2020 20:25:00 23.3 C 17.77 g/m*3 23.3 C 0 km/h
823 15-08-2020 20:30:00 23.3 C 17.56 g/m*3 23.3 C 0 km/h
824 15-08-2020 20:35:00 23.2 C 17.46 g/m*3 23.2 C 0 km/h
825 15-08-2020 20:40:00 23.1 C 17.16 g/m*3 23.1 C 0 km/h
Sensor: Nr:Datum:Temp:Abs-Feuchte:Windchill:Wind:
Aussen-T/F 826 15-08-2020 20:45:00 22.9 C 17.17 g/m*3 22.9 C 0 km/h
827 15-08-2020 20:50:00 22.8 C 17.07 g/m*3 22.8 C 1.6 km/h
828 15-08-2020 20:55:00 22.7 C 16.77 g/m*3 22.7 C 0 km/h
829 15-08-2020 21:00:00 22.6 C 16.87 g/m*3 22.6 C 0 km/h
830 15-08-2020 21:05:00 22.4 C 16.68 g/m*3 22.4 C 0 km/h
831 15-08-2020 21:10:00 22.3 C 16.59 g/m*3 22.3 C 0 km/h
832 15-08-2020 21:15:00 22.2 C 16.69 g/m*3 22.2 C 0 km/h
833 15-08-2020 21:20:00 22.1 C 16.59 g/m*3 22.1 C 0 km/h
834 15-08-2020 21:25:00 22 C 16.69 g/m*3 22 C 0 km/h
835 15-08-2020 21:30:00 21.9 C 16.6 g/m*3 21.9 C 0 km/h
836 15-08-2020 21:35:00 21.8 C 16.5 g/m*3 21.8 C 0 km/h
837 15-08-2020 21:40:00 21.7 C 16.6 g/m*3 21.7 C 0 km/h
838 15-08-2020 21:45:00 21.7 C 16.6 g/m*3 21.7 C 0 km/h
839 15-08-2020 21:50:00 21.6 C 16.5 g/m*3 21.6 C 0 km/h
840 15-08-2020 21:55:00 21.6 C 16.69 g/m*3 21.6 C 0 km/h
841 15-08-2020 22:00:00 21.4 C 16.5 g/m*3 21.4 C 0 km/h
842 15-08-2020 22:05:00 21.4 C 16.5 g/m*3 21.4 C 0 km/h
843 15-08-2020 22:10:00 21.3 C 16.59 g/m*3 21.3 C 0 km/h
844 15-08-2020 22:15:00 21.3 C 16.59 g/m*3 21.3 C 0 km/h
845 15-08-2020 22:20:00 21.2 C 16.49 g/m*3 21.2 C 0 km/h
846 15-08-2020 22:25:00 21.2 C 16.49 g/m*3 21.2 C 0 km/h
847 15-08-2020 22:30:00 21.1 C 16.4 g/m*3 21.1 C 0 km/h
848 15-08-2020 22:35:00 21.1 C 16.58 g/m*3 21.1 C 0 km/h
849 15-08-2020 22:40:00 21 C 16.49 g/m*3 21 C 0 km/h
850 15-08-2020 22:45:00 20.9 C 16.39 g/m*3 20.9 C 0 km/h
Sensor: Nr:Datum:Temp:Abs-Feuchte:Windchill:Wind:
Aussen-T/F 851 15-08-2020 22:50:00 20.9 C 16.39 g/m*3 20.9 C 0 km/h
852 15-08-2020 22:55:00 20.8 C 16.3 g/m*3 20.8 C 0 km/h
853 15-08-2020 23:00:00 20.8 C 16.3 g/m*3 20.8 C 0 km/h
854 15-08-2020 23:05:00 20.8 C 16.3 g/m*3 20.8 C 0 km/h
855 15-08-2020 23:10:00 20.7 C 16.38 g/m*3 20.7 C 0 km/h
856 15-08-2020 23:15:00 20.6 C 16.29 g/m*3 20.6 C 0 km/h
857 15-08-2020 23:20:00 20.6 C 16.29 g/m*3 20.6 C 0 km/h
858 15-08-2020 23:25:00 20.5 C 16.19 g/m*3 20.5 C 0 km/h
859 15-08-2020 23:30:00 20.4 C 16.1 g/m*3 20.4 C 0 km/h
860 15-08-2020 23:35:00 20.3 C 16 g/m*3 20.3 C 0 km/h
861 15-08-2020 23:40:00 20.2 C 15.91 g/m*3 20.2 C 0 km/h
862 15-08-2020 23:45:00 20.2 C 15.91 g/m*3 20.2 C 0 km/h
863 15-08-2020 23:50:00 20.1 C 15.82 g/m*3 20.1 C 0 km/h
864 15-08-2020 23:55:00 20.1 C 15.82 g/m*3 20.1 C 0 km/h

Legende:
   Min
   Max


Maximal/Minimal-Werte vom 13.08.2020 - 15.08.2020

Sensor Min Max Avg
Temp
(Aussen-T/F)
18.2 °C
15-08-2020  05:25:00
30.7 °C
14-08-2020  17:55:00
22.78 °C
Abs-Feuchte
(Aussen-T/F)
14.54 g/m*3
15-08-2020  05:00:00
20.77 g/m*3
13-08-2020  11:55:00
16.27 g/m*3
Windchill
(Aussen-T/F)
18.2 C
15-08-2020  05:25:00
30.7 C
14-08-2020  17:55:00
22.75 C

Die Daten stammen von einer Davis Vantage Pro 2 Wetter-Station und werden unter Linux mit der Software wview2wettercgi und aufbereitet. Alle Angaben erfolgen ohne Gewähr für ihre Vollständigkeit oder Richtigkeit.
Kontakt: Rainer Krienke krienke@uni-koblenz.de . Meine Webseiten an der Uni Koblenz oder privat.
Version: $Revision: 0.78 $